sensor_id;sensor_type;location;lat;lon;timestamp;P1;durP1;ratioP1;P2;durP2;ratioP2
34775;SDS011;20989;52.566;13.346;2022-12-01T00:00:39;11.90;;;9.57;;
34775;SDS011;20989;52.566;13.346;2022-12-01T00:03:40;11.27;;;9.52;;
34775;SDS011;20989;52.566;13.346;2022-12-01T00:06:40;10.38;;;8.93;;
34775;SDS011;20989;52.566;13.346;2022-12-01T00:09:41;11.45;;;9.55;;
34775;SDS011;20989;52.566;13.346;2022-12-01T00:13:01;11.75;;;9.93;;
34775;SDS011;20989;52.566;13.346;2022-12-01T00:16:10;10.50;;;9.10;;
34775;SDS011;20989;52.566;13.346;2022-12-01T00:19:15;11.05;;;9.68;;
34775;SDS011;20989;52.566;13.346;2022-12-01T00:22:17;11.13;;;9.18;;
34775;SDS011;20989;52.566;13.346;2022-12-01T00:25:18;12.90;;;10.13;;
34775;SDS011;20989;52.566;13.346;2022-12-01T00:28:19;10.50;;;9.20;;
34775;SDS011;20989;52.566;13.346;2022-12-01T00:31:21;11.20;;;9.82;;
34775;SDS011;20989;52.566;13.346;2022-12-01T00:34:23;10.90;;;9.15;;
34775;SDS011;20989;52.566;13.346;2022-12-01T00:37:24;11.38;;;9.65;;
34775;SDS011;20989;52.566;13.346;2022-12-01T00:40:25;11.98;;;10.43;;
34775;SDS011;20989;52.566;13.346;2022-12-01T00:43:26;11.10;;;9.52;;
34775;SDS011;20989;52.566;13.346;2022-12-01T00:46:26;11.35;;;9.18;;
34775;SDS011;20989;52.566;13.346;2022-12-01T00:49:27;9.90;;;8.75;;
34775;SDS011;20989;52.566;13.346;2022-12-01T00:52:28;10.07;;;9.00;;
34775;SDS011;20989;52.566;13.346;2022-12-01T00:55:28;10.95;;;9.18;;
34775;SDS011;20989;52.566;13.346;2022-12-01T00:58:29;11.73;;;9.63;;
34775;SDS011;20989;52.566;13.346;2022-12-01T01:01:30;11.55;;;9.23;;
34775;SDS011;20989;52.566;13.346;2022-12-01T01:04:31;9.85;;;8.40;;
34775;SDS011;20989;52.566;13.346;2022-12-01T01:07:33;10.10;;;8.23;;
34775;SDS011;20989;52.566;13.346;2022-12-01T01:10:40;12.95;;;9.48;;
34775;SDS011;20989;52.566;13.346;2022-12-01T01:13:42;10.63;;;8.63;;
34775;SDS011;20989;52.566;13.346;2022-12-01T01:16:43;11.38;;;9.95;;
34775;SDS011;20989;52.566;13.346;2022-12-01T01:19:44;10.55;;;8.88;;
34775;SDS011;20989;52.566;13.346;2022-12-01T01:22:45;10.05;;;9.00;;
34775;SDS011;20989;52.566;13.346;2022-12-01T01:25:45;10.85;;;9.55;;
34775;SDS011;20989;52.566;13.346;2022-12-01T01:28:46;11.27;;;9.63;;
34775;SDS011;20989;52.566;13.346;2022-12-01T01:31:48;11.40;;;9.27;;
34775;SDS011;20989;52.566;13.346;2022-12-01T01:34:48;10.05;;;8.43;;
34775;SDS011;20989;52.566;13.346;2022-12-01T01:37:49;10.95;;;8.95;;
34775;SDS011;20989;52.566;13.346;2022-12-01T01:40:50;10.80;;;8.90;;
34775;SDS011;20989;52.566;13.346;2022-12-01T01:43:53;9.38;;;8.25;;
34775;SDS011;20989;52.566;13.346;2022-12-01T01:46:58;10.65;;;9.48;;
34775;SDS011;20989;52.566;13.346;2022-12-01T01:50:00;9.88;;;8.75;;
34775;SDS011;20989;52.566;13.346;2022-12-01T01:53:08;10.00;;;8.90;;
34775;SDS011;20989;52.566;13.346;2022-12-01T01:56:11;10.43;;;8.98;;
34775;SDS011;20989;52.566;13.346;2022-12-01T01:59:12;9.30;;;8.38;;
34775;SDS011;20989;52.566;13.346;2022-12-01T02:02:16;10.55;;;9.13;;
34775;SDS011;20989;52.566;13.346;2022-12-01T02:05:18;12.13;;;9.32;;
34775;SDS011;20989;52.566;13.346;2022-12-01T02:08:22;10.90;;;9.05;;
34775;SDS011;20989;52.566;13.346;2022-12-01T02:11:44;9.65;;;8.55;;
34775;SDS011;20989;52.566;13.346;2022-12-01T02:18:21;10.35;;;8.85;;
34775;SDS011;20989;52.566;13.346;2022-12-01T02:21:47;10.77;;;8.82;;
34775;SDS011;20989;52.566;13.346;2022-12-01T02:25:07;9.85;;;8.75;;
34775;SDS011;20989;52.566;13.346;2022-12-01T02:28:41;9.93;;;8.70;;
34775;SDS011;20989;52.566;13.346;2022-12-01T02:34:57;9.98;;;8.70;;
34775;SDS011;20989;52.566;13.346;2022-12-01T02:38:30;12.23;;;9.00;;
34775;SDS011;20989;52.566;13.346;2022-12-01T02:42:02;11.80;;;9.68;;
34775;SDS011;20989;52.566;13.346;2022-12-01T02:45:44;10.87;;;9.23;;
34775;SDS011;20989;52.566;13.346;2022-12-01T02:48:51;12.45;;;9.20;;
34775;SDS011;20989;52.566;13.346;2022-12-01T02:51:56;9.82;;;8.30;;
34775;SDS011;20989;52.566;13.346;2022-12-01T02:54:58;10.50;;;8.98;;
34775;SDS011;20989;52.566;13.346;2022-12-01T02:57:59;10.35;;;9.25;;
34775;SDS011;20989;52.566;13.346;2022-12-01T03:07:45;11.07;;;8.98;;
34775;SDS011;20989;52.566;13.346;2022-12-01T03:11:00;11.55;;;9.93;;
34775;SDS011;20989;52.566;13.346;2022-12-01T03:14:08;10.90;;;8.93;;
34775;SDS011;20989;52.566;13.346;2022-12-01T03:17:13;12.68;;;9.07;;
34775;SDS011;20989;52.566;13.346;2022-12-01T03:20:19;11.05;;;9.18;;
34775;SDS011;20989;52.566;13.346;2022-12-01T03:23:25;11.50;;;8.50;;
34775;SDS011;20989;52.566;13.346;2022-12-01T03:26:29;12.23;;;8.68;;
34775;SDS011;20989;52.566;13.346;2022-12-01T03:29:45;9.57;;;8.57;;
34775;SDS011;20989;52.566;13.346;2022-12-01T03:32:50;11.27;;;9.00;;
34775;SDS011;20989;52.566;13.346;2022-12-01T03:35:58;12.38;;;8.60;;
34775;SDS011;20989;52.566;13.346;2022-12-01T03:39:06;10.52;;;9.05;;
34775;SDS011;20989;52.566;13.346;2022-12-01T03:48:39;12.40;;;9.57;;
34775;SDS011;20989;52.566;13.346;2022-12-01T03:58:20;9.73;;;8.35;;
34775;SDS011;20989;52.566;13.346;2022-12-01T04:01:28;10.38;;;8.48;;
34775;SDS011;20989;52.566;13.346;2022-12-01T04:04:31;10.85;;;8.60;;
34775;SDS011;20989;52.566;13.346;2022-12-01T04:07:32;10.85;;;9.00;;
34775;SDS011;20989;52.566;13.346;2022-12-01T04:10:33;11.15;;;8.95;;
34775;SDS011;20989;52.566;13.346;2022-12-01T04:13:33;11.52;;;8.90;;
34775;SDS011;20989;52.566;13.346;2022-12-01T04:16:34;10.25;;;7.65;;
34775;SDS011;20989;52.566;13.346;2022-12-01T04:19:34;12.30;;;9.30;;
34775;SDS011;20989;52.566;13.346;2022-12-01T04:22:35;9.82;;;8.32;;
34775;SDS011;20989;52.566;13.346;2022-12-01T04:25:36;12.10;;;9.13;;
34775;SDS011;20989;52.566;13.346;2022-12-01T04:28:37;12.27;;;8.98;;
34775;SDS011;20989;52.566;13.346;2022-12-01T04:31:38;11.15;;;8.75;;
34775;SDS011;20989;52.566;13.346;2022-12-01T04:34:39;11.07;;;8.65;;
34775;SDS011;20989;52.566;13.346;2022-12-01T04:37:39;11.55;;;8.70;;
34775;SDS011;20989;52.566;13.346;2022-12-01T04:40:40;9.23;;;7.95;;
34775;SDS011;20989;52.566;13.346;2022-12-01T04:43:41;12.55;;;8.68;;
34775;SDS011;20989;52.566;13.346;2022-12-01T04:46:42;11.30;;;9.35;;
34775;SDS011;20989;52.566;13.346;2022-12-01T04:49:43;11.48;;;8.25;;
34775;SDS011;20989;52.566;13.346;2022-12-01T04:52:43;11.02;;;8.43;;
34775;SDS011;20989;52.566;13.346;2022-12-01T04:55:45;11.15;;;8.50;;
34775;SDS011;20989;52.566;13.346;2022-12-01T04:58:46;11.88;;;9.23;;
34775;SDS011;20989;52.566;13.346;2022-12-01T05:01:47;9.15;;;7.85;;
34775;SDS011;20989;52.566;13.346;2022-12-01T05:04:47;12.85;;;10.02;;
34775;SDS011;20989;52.566;13.346;2022-12-01T05:07:48;9.85;;;8.15;;
34775;SDS011;20989;52.566;13.346;2022-12-01T05:10:49;10.27;;;8.35;;
34775;SDS011;20989;52.566;13.346;2022-12-01T05:13:54;11.00;;;8.48;;
34775;SDS011;20989;52.566;13.346;2022-12-01T05:16:55;10.65;;;8.70;;
34775;SDS011;20989;52.566;13.346;2022-12-01T05:19:57;9.25;;;7.90;;
34775;SDS011;20989;52.566;13.346;2022-12-01T05:23:16;9.57;;;8.32;;
34775;SDS011;20989;52.566;13.346;2022-12-01T05:26:17;9.23;;;8.05;;
34775;SDS011;20989;52.566;13.346;2022-12-01T05:29:18;9.45;;;8.35;;
34775;SDS011;20989;52.566;13.346;2022-12-01T05:32:18;11.10;;;8.40;;
34775;SDS011;20989;52.566;13.346;2022-12-01T05:35:19;10.18;;;8.63;;
34775;SDS011;20989;52.566;13.346;2022-12-01T05:38:20;10.60;;;8.88;;
34775;SDS011;20989;52.566;13.346;2022-12-01T05:41:21;10.93;;;9.20;;
34775;SDS011;20989;52.566;13.346;2022-12-01T05:44:22;13.25;;;9.88;;
34775;SDS011;20989;52.566;13.346;2022-12-01T05:47:22;8.90;;;7.95;;
34775;SDS011;20989;52.566;13.346;2022-12-01T05:50:23;9.80;;;7.68;;
34775;SDS011;20989;52.566;13.346;2022-12-01T05:53:25;9.98;;;7.97;;
34775;SDS011;20989;52.566;13.346;2022-12-01T05:56:26;11.00;;;9.15;;
34775;SDS011;20989;52.566;13.346;2022-12-01T05:59:27;9.95;;;8.52;;
34775;SDS011;20989;52.566;13.346;2022-12-01T06:02:28;8.93;;;7.80;;
34775;SDS011;20989;52.566;13.346;2022-12-01T06:05:28;11.00;;;8.82;;
34775;SDS011;20989;52.566;13.346;2022-12-01T06:08:29;11.50;;;8.63;;
34775;SDS011;20989;52.566;13.346;2022-12-01T06:11:30;12.57;;;9.38;;
34775;SDS011;20989;52.566;13.346;2022-12-01T06:14:30;13.50;;;9.75;;
34775;SDS011;20989;52.566;13.346;2022-12-01T06:17:32;19.17;;;10.35;;
34775;SDS011;20989;52.566;13.346;2022-12-01T06:20:33;13.93;;;9.38;;
34775;SDS011;20989;52.566;13.346;2022-12-01T06:23:34;13.95;;;9.02;;
34775;SDS011;20989;52.566;13.346;2022-12-01T06:26:35;12.38;;;9.40;;
34775;SDS011;20989;52.566;13.346;2022-12-01T06:29:35;14.32;;;10.25;;
34775;SDS011;20989;52.566;13.346;2022-12-01T06:32:36;14.23;;;9.45;;
34775;SDS011;20989;52.566;13.346;2022-12-01T06:35:37;15.80;;;9.80;;
34775;SDS011;20989;52.566;13.346;2022-12-01T06:38:38;13.00;;;8.98;;
34775;SDS011;20989;52.566;13.346;2022-12-01T06:41:38;15.02;;;10.10;;
34775;SDS011;20989;52.566;13.346;2022-12-01T06:44:39;13.73;;;10.38;;
34775;SDS011;20989;52.566;13.346;2022-12-01T06:47:40;15.68;;;9.95;;
34775;SDS011;20989;52.566;13.346;2022-12-01T06:50:41;16.60;;;9.57;;
34775;SDS011;20989;52.566;13.346;2022-12-01T06:53:42;13.32;;;9.52;;
34775;SDS011;20989;52.566;13.346;2022-12-01T06:56:43;12.40;;;9.40;;
34775;SDS011;20989;52.566;13.346;2022-12-01T06:59:45;14.23;;;9.80;;
34775;SDS011;20989;52.566;13.346;2022-12-01T07:02:45;12.45;;;10.13;;
34775;SDS011;20989;52.566;13.346;2022-12-01T07:05:53;11.73;;;9.55;;
34775;SDS011;20989;52.566;13.346;2022-12-01T07:08:57;12.55;;;9.30;;
34775;SDS011;20989;52.566;13.346;2022-12-01T07:11:58;11.35;;;9.00;;
34775;SDS011;20989;52.566;13.346;2022-12-01T07:14:59;12.75;;;9.30;;
34775;SDS011;20989;52.566;13.346;2022-12-01T07:18:00;10.32;;;9.05;;
34775;SDS011;20989;52.566;13.346;2022-12-01T07:21:02;12.75;;;9.30;;
34775;SDS011;20989;52.566;13.346;2022-12-01T07:24:04;13.63;;;9.02;;
34775;SDS011;20989;52.566;13.346;2022-12-01T07:27:05;11.85;;;10.23;;
34775;SDS011;20989;52.566;13.346;2022-12-01T07:30:06;11.07;;;8.93;;
34775;SDS011;20989;52.566;13.346;2022-12-01T07:33:07;12.13;;;9.30;;
34775;SDS011;20989;52.566;13.346;2022-12-01T07:36:08;18.52;;;12.60;;
34775;SDS011;20989;52.566;13.346;2022-12-01T07:39:10;17.73;;;13.57;;
34775;SDS011;20989;52.566;13.346;2022-12-01T07:42:11;25.95;;;15.25;;
34775;SDS011;20989;52.566;13.346;2022-12-01T07:45:12;17.33;;;13.43;;
34775;SDS011;20989;52.566;13.346;2022-12-01T07:48:13;20.95;;;14.45;;
34775;SDS011;20989;52.566;13.346;2022-12-01T07:51:14;17.75;;;13.23;;
34775;SDS011;20989;52.566;13.346;2022-12-01T07:54:15;17.70;;;11.27;;
34775;SDS011;20989;52.566;13.346;2022-12-01T07:57:19;17.40;;;13.52;;
34775;SDS011;20989;52.566;13.346;2022-12-01T08:00:20;21.75;;;13.63;;
34775;SDS011;20989;52.566;13.346;2022-12-01T08:03:21;13.90;;;11.65;;
34775;SDS011;20989;52.566;13.346;2022-12-01T08:06:22;13.98;;;11.73;;
34775;SDS011;20989;52.566;13.346;2022-12-01T08:09:23;16.77;;;12.07;;
34775;SDS011;20989;52.566;13.346;2022-12-01T08:12:24;16.63;;;11.98;;
34775;SDS011;20989;52.566;13.346;2022-12-01T08:15:25;15.32;;;12.18;;
34775;SDS011;20989;52.566;13.346;2022-12-01T08:18:25;16.33;;;12.65;;
34775;SDS011;20989;52.566;13.346;2022-12-01T08:21:27;14.18;;;11.95;;
34775;SDS011;20989;52.566;13.346;2022-12-01T08:24:28;14.95;;;11.73;;
34775;SDS011;20989;52.566;13.346;2022-12-01T08:27:29;15.45;;;12.68;;
34775;SDS011;20989;52.566;13.346;2022-12-01T08:30:30;15.52;;;12.20;;
34775;SDS011;20989;52.566;13.346;2022-12-01T08:33:30;13.88;;;12.13;;
34775;SDS011;20989;52.566;13.346;2022-12-01T08:36:31;19.23;;;13.52;;
34775;SDS011;20989;52.566;13.346;2022-12-01T08:39:33;15.25;;;11.90;;
34775;SDS011;20989;52.566;13.346;2022-12-01T08:42:34;20.30;;;14.05;;
34775;SDS011;20989;52.566;13.346;2022-12-01T08:45:34;31.65;;;14.38;;
34775;SDS011;20989;52.566;13.346;2022-12-01T08:48:35;26.75;;;14.43;;
34775;SDS011;20989;52.566;13.346;2022-12-01T08:51:36;21.02;;;13.27;;
34775;SDS011;20989;52.566;13.346;2022-12-01T08:54:37;26.83;;;14.55;;
34775;SDS011;20989;52.566;13.346;2022-12-01T08:57:38;19.05;;;13.57;;
34775;SDS011;20989;52.566;13.346;2022-12-01T09:00:39;16.45;;;13.63;;
34775;SDS011;20989;52.566;13.346;2022-12-01T09:03:40;20.85;;;13.13;;
34775;SDS011;20989;52.566;13.346;2022-12-01T09:06:42;19.48;;;14.20;;
34775;SDS011;20989;52.566;13.346;2022-12-01T09:09:45;21.75;;;14.73;;
34775;SDS011;20989;52.566;13.346;2022-12-01T09:12:46;29.65;;;19.65;;
34775;SDS011;20989;52.566;13.346;2022-12-01T09:15:53;38.03;;;23.90;;
34775;SDS011;20989;52.566;13.346;2022-12-01T09:18:58;43.28;;;26.73;;
34775;SDS011;20989;52.566;13.346;2022-12-01T09:21:59;41.45;;;27.15;;
34775;SDS011;20989;52.566;13.346;2022-12-01T09:25:00;39.05;;;27.33;;
34775;SDS011;20989;52.566;13.346;2022-12-01T09:28:01;47.58;;;29.27;;
34775;SDS011;20989;52.566;13.346;2022-12-01T09:31:06;45.60;;;30.85;;
34775;SDS011;20989;52.566;13.346;2022-12-01T09:34:11;48.20;;;29.92;;
34775;SDS011;20989;52.566;13.346;2022-12-01T09:37:15;44.55;;;31.48;;
34775;SDS011;20989;52.566;13.346;2022-12-01T09:40:15;45.75;;;31.00;;
34775;SDS011;20989;52.566;13.346;2022-12-01T09:43:17;49.00;;;32.00;;
34775;SDS011;20989;52.566;13.346;2022-12-01T09:46:23;58.05;;;34.88;;
34775;SDS011;20989;52.566;13.346;2022-12-01T09:49:48;52.97;;;33.30;;
34775;SDS011;20989;52.566;13.346;2022-12-01T09:53:02;56.70;;;35.35;;
34775;SDS011;20989;52.566;13.346;2022-12-01T09:56:10;54.20;;;35.83;;
34775;SDS011;20989;52.566;13.346;2022-12-01T09:59:22;56.67;;;34.53;;
34775;SDS011;20989;52.566;13.346;2022-12-01T10:02:37;61.40;;;37.28;;
34775;SDS011;20989;52.566;13.346;2022-12-01T10:08:56;57.23;;;37.90;;
34775;SDS011;20989;52.566;13.346;2022-12-01T10:12:10;56.25;;;38.25;;
34775;SDS011;20989;52.566;13.346;2022-12-01T10:28:48;51.28;;;37.22;;
34775;SDS011;20989;52.566;13.346;2022-12-01T10:35:04;49.90;;;35.45;;
34775;SDS011;20989;52.566;13.346;2022-12-01T10:38:06;53.75;;;36.00;;
34775;SDS011;20989;52.566;13.346;2022-12-01T10:41:13;49.08;;;33.83;;
34775;SDS011;20989;52.566;13.346;2022-12-01T10:44:17;49.90;;;33.42;;
34775;SDS011;20989;52.566;13.346;2022-12-01T10:47:22;46.67;;;31.67;;
34775;SDS011;20989;52.566;13.346;2022-12-01T10:50:25;44.20;;;30.67;;
34775;SDS011;20989;52.566;13.346;2022-12-01T10:53:33;44.95;;;31.40;;
34775;SDS011;20989;52.566;13.346;2022-12-01T10:56:37;44.78;;;31.00;;
34775;SDS011;20989;52.566;13.346;2022-12-01T11:02:49;40.40;;;28.85;;
34775;SDS011;20989;52.566;13.346;2022-12-01T11:05:52;39.35;;;29.88;;
34775;SDS011;20989;52.566;13.346;2022-12-01T11:09:04;38.58;;;27.92;;
34775;SDS011;20989;52.566;13.346;2022-12-01T11:12:16;40.47;;;27.13;;
34775;SDS011;20989;52.566;13.346;2022-12-01T11:15:23;40.78;;;29.02;;
34775;SDS011;20989;52.566;13.346;2022-12-01T11:21:33;35.75;;;26.50;;
34775;SDS011;20989;52.566;13.346;2022-12-01T11:24:44;48.95;;;28.23;;
34775;SDS011;20989;52.566;13.346;2022-12-01T11:28:04;39.92;;;27.38;;
34775;SDS011;20989;52.566;13.346;2022-12-01T11:31:06;35.92;;;26.77;;
34775;SDS011;20989;52.566;13.346;2022-12-01T11:37:19;36.75;;;26.30;;
34775;SDS011;20989;52.566;13.346;2022-12-01T11:40:25;32.40;;;24.65;;
34775;SDS011;20989;52.566;13.346;2022-12-01T11:43:35;34.92;;;25.48;;
34775;SDS011;20989;52.566;13.346;2022-12-01T11:46:38;40.00;;;25.02;;
34775;SDS011;20989;52.566;13.346;2022-12-01T11:49:42;36.00;;;24.27;;
34775;SDS011;20989;52.566;13.346;2022-12-01T11:52:45;36.92;;;25.40;;
34775;SDS011;20989;52.566;13.346;2022-12-01T11:55:46;34.78;;;25.30;;
34775;SDS011;20989;52.566;13.346;2022-12-01T11:58:48;37.15;;;26.30;;
34775;SDS011;20989;52.566;13.346;2022-12-01T12:02:09;37.35;;;27.05;;
34775;SDS011;20989;52.566;13.346;2022-12-01T12:12:24;35.55;;;25.15;;
34775;SDS011;20989;52.566;13.346;2022-12-01T12:32:27;30.88;;;22.52;;
34775;SDS011;20989;52.566;13.346;2022-12-01T12:45:41;32.97;;;20.30;;
34775;SDS011;20989;52.566;13.346;2022-12-01T12:48:54;31.52;;;20.98;;
34775;SDS011;20989;52.566;13.346;2022-12-01T12:52:13;29.25;;;20.92;;
34775;SDS011;20989;52.566;13.346;2022-12-01T12:55:19;26.98;;;19.92;;
34775;SDS011;20989;52.566;13.346;2022-12-01T13:01:30;22.88;;;17.42;;
34775;SDS011;20989;52.566;13.346;2022-12-01T13:14:28;21.65;;;18.17;;
34775;SDS011;20989;52.566;13.346;2022-12-01T13:17:52;25.05;;;18.85;;
34775;SDS011;20989;52.566;13.346;2022-12-01T13:21:02;22.92;;;17.33;;
34775;SDS011;20989;52.566;13.346;2022-12-01T13:24:04;20.55;;;16.98;;
34775;SDS011;20989;52.566;13.346;2022-12-01T13:30:18;22.80;;;17.63;;
34775;SDS011;20989;52.566;13.346;2022-12-01T13:33:20;28.92;;;18.05;;
34775;SDS011;20989;52.566;13.346;2022-12-01T13:36:21;22.90;;;18.42;;
34775;SDS011;20989;52.566;13.346;2022-12-01T13:39:24;28.45;;;18.33;;
34775;SDS011;20989;52.566;13.346;2022-12-01T13:42:27;22.17;;;16.80;;
34775;SDS011;20989;52.566;13.346;2022-12-01T13:45:33;20.30;;;16.45;;
34775;SDS011;20989;52.566;13.346;2022-12-01T14:04:22;20.40;;;16.35;;
34775;SDS011;20989;52.566;13.346;2022-12-01T14:07:31;18.67;;;15.35;;
34775;SDS011;20989;52.566;13.346;2022-12-01T14:10:35;18.10;;;14.87;;
34775;SDS011;20989;52.566;13.346;2022-12-01T14:13:48;16.98;;;14.50;;
34775;SDS011;20989;52.566;13.346;2022-12-01T14:16:53;18.48;;;15.57;;
34775;SDS011;20989;52.566;13.346;2022-12-01T14:20:03;18.67;;;14.77;;
34775;SDS011;20989;52.566;13.346;2022-12-01T14:23:12;17.92;;;15.10;;
34775;SDS011;20989;52.566;13.346;2022-12-01T14:26:17;18.67;;;15.45;;
34775;SDS011;20989;52.566;13.346;2022-12-01T14:29:24;19.35;;;15.68;;
34775;SDS011;20989;52.566;13.346;2022-12-01T14:32:38;19.58;;;14.75;;
34775;SDS011;20989;52.566;13.346;2022-12-01T14:35:39;17.13;;;14.50;;
34775;SDS011;20989;52.566;13.346;2022-12-01T14:38:40;19.95;;;14.85;;
34775;SDS011;20989;52.566;13.346;2022-12-01T14:41:45;23.20;;;16.98;;
34775;SDS011;20989;52.566;13.346;2022-12-01T14:44:53;22.08;;;18.20;;
34775;SDS011;20989;52.566;13.346;2022-12-01T14:47:58;21.08;;;15.32;;
34775;SDS011;20989;52.566;13.346;2022-12-01T14:51:12;19.20;;;15.48;;
34775;SDS011;20989;52.566;13.346;2022-12-01T14:54:45;22.63;;;16.45;;
34775;SDS011;20989;52.566;13.346;2022-12-01T14:57:50;20.35;;;16.38;;
34775;SDS011;20989;52.566;13.346;2022-12-01T15:01:11;21.52;;;15.93;;
34775;SDS011;20989;52.566;13.346;2022-12-01T15:04:14;20.75;;;15.48;;
34775;SDS011;20989;52.566;13.346;2022-12-01T15:07:19;18.77;;;14.90;;
34775;SDS011;20989;52.566;13.346;2022-12-01T15:10:29;21.38;;;15.27;;
34775;SDS011;20989;52.566;13.346;2022-12-01T15:13:43;33.70;;;18.60;;
34775;SDS011;20989;52.566;13.346;2022-12-01T15:16:47;19.92;;;17.23;;
34775;SDS011;20989;52.566;13.346;2022-12-01T15:19:48;19.35;;;16.98;;
34775;SDS011;20989;52.566;13.346;2022-12-01T15:22:51;18.23;;;14.90;;
34775;SDS011;20989;52.566;13.346;2022-12-01T15:25:52;17.88;;;15.27;;
34775;SDS011;20989;52.566;13.346;2022-12-01T15:32:27;16.48;;;14.70;;
34775;SDS011;20989;52.566;13.346;2022-12-01T15:35:29;16.50;;;14.25;;
34775;SDS011;20989;52.566;13.346;2022-12-01T15:38:31;17.33;;;13.98;;
34775;SDS011;20989;52.566;13.346;2022-12-01T15:41:33;18.70;;;15.82;;
34775;SDS011;20989;52.566;13.346;2022-12-01T15:44:37;17.75;;;15.02;;
34775;SDS011;20989;52.566;13.346;2022-12-01T15:50:43;18.88;;;14.30;;
34775;SDS011;20989;52.566;13.346;2022-12-01T15:53:52;17.80;;;14.05;;
34775;SDS011;20989;52.566;13.346;2022-12-01T15:57:00;15.48;;;13.82;;
34775;SDS011;20989;52.566;13.346;2022-12-01T16:00:02;16.98;;;14.23;;
34775;SDS011;20989;52.566;13.346;2022-12-01T16:03:03;19.02;;;14.35;;
34775;SDS011;20989;52.566;13.346;2022-12-01T16:06:04;24.10;;;14.85;;
34775;SDS011;20989;52.566;13.346;2022-12-01T16:09:19;22.13;;;15.23;;
34775;SDS011;20989;52.566;13.346;2022-12-01T16:12:25;17.90;;;13.98;;
34775;SDS011;20989;52.566;13.346;2022-12-01T16:15:40;18.13;;;14.80;;
34775;SDS011;20989;52.566;13.346;2022-12-01T16:18:42;18.75;;;14.45;;
34775;SDS011;20989;52.566;13.346;2022-12-01T16:21:57;19.55;;;14.35;;
34775;SDS011;20989;52.566;13.346;2022-12-01T16:25:15;19.17;;;13.50;;
34775;SDS011;20989;52.566;13.346;2022-12-01T16:28:25;33.97;;;25.60;;
34775;SDS011;20989;52.566;13.346;2022-12-01T16:31:31;46.05;;;34.90;;
34775;SDS011;20989;52.566;13.346;2022-12-01T16:34:31;34.65;;;26.60;;
34775;SDS011;20989;52.566;13.346;2022-12-01T16:37:33;28.55;;;22.02;;
34775;SDS011;20989;52.566;13.346;2022-12-01T16:40:35;28.02;;;21.85;;
34775;SDS011;20989;52.566;13.346;2022-12-01T16:43:35;30.00;;;21.98;;
34775;SDS011;20989;52.566;13.346;2022-12-01T16:46:36;24.50;;;19.67;;
34775;SDS011;20989;52.566;13.346;2022-12-01T16:49:37;25.73;;;20.33;;
34775;SDS011;20989;52.566;13.346;2022-12-01T16:52:38;24.02;;;20.38;;
34775;SDS011;20989;52.566;13.346;2022-12-01T16:55:55;23.23;;;18.30;;
34775;SDS011;20989;52.566;13.346;2022-12-01T16:58:58;21.08;;;17.48;;
34775;SDS011;20989;52.566;13.346;2022-12-01T17:02:00;24.52;;;17.95;;
34775;SDS011;20989;52.566;13.346;2022-12-01T17:05:02;21.75;;;17.17;;
34775;SDS011;20989;52.566;13.346;2022-12-01T17:08:03;23.60;;;17.25;;
34775;SDS011;20989;52.566;13.346;2022-12-01T17:11:04;19.20;;;15.57;;
34775;SDS011;20989;52.566;13.346;2022-12-01T17:14:06;17.20;;;14.55;;
34775;SDS011;20989;52.566;13.346;2022-12-01T17:17:07;19.65;;;16.15;;
34775;SDS011;20989;52.566;13.346;2022-12-01T17:20:08;20.25;;;15.75;;
34775;SDS011;20989;52.566;13.346;2022-12-01T17:23:09;17.70;;;15.35;;
34775;SDS011;20989;52.566;13.346;2022-12-01T17:26:14;17.95;;;14.98;;
34775;SDS011;20989;52.566;13.346;2022-12-01T17:29:16;17.38;;;15.02;;
34775;SDS011;20989;52.566;13.346;2022-12-01T17:32:16;17.48;;;14.65;;
34775;SDS011;20989;52.566;13.346;2022-12-01T17:35:17;17.63;;;15.23;;
34775;SDS011;20989;52.566;13.346;2022-12-01T17:38:18;18.33;;;14.77;;
34775;SDS011;20989;52.566;13.346;2022-12-01T17:41:19;16.83;;;14.93;;
34775;SDS011;20989;52.566;13.346;2022-12-01T17:44:26;29.08;;;15.90;;
34775;SDS011;20989;52.566;13.346;2022-12-01T17:47:27;17.58;;;13.95;;
34775;SDS011;20989;52.566;13.346;2022-12-01T17:50:28;21.85;;;14.48;;
34775;SDS011;20989;52.566;13.346;2022-12-01T17:53:29;16.98;;;14.20;;
34775;SDS011;20989;52.566;13.346;2022-12-01T17:56:30;15.55;;;13.45;;
34775;SDS011;20989;52.566;13.346;2022-12-01T17:59:32;17.27;;;14.35;;
34775;SDS011;20989;52.566;13.346;2022-12-01T18:02:33;14.57;;;12.43;;
34775;SDS011;20989;52.566;13.346;2022-12-01T18:05:34;15.00;;;13.18;;
34775;SDS011;20989;52.566;13.346;2022-12-01T18:08:35;20.20;;;14.05;;
34775;SDS011;20989;52.566;13.346;2022-12-01T18:11:37;21.88;;;13.38;;
34775;SDS011;20989;52.566;13.346;2022-12-01T18:14:37;16.50;;;12.77;;
34775;SDS011;20989;52.566;13.346;2022-12-01T18:17:39;21.10;;;14.00;;
34775;SDS011;20989;52.566;13.346;2022-12-01T18:20:41;16.45;;;12.43;;
34775;SDS011;20989;52.566;13.346;2022-12-01T18:23:49;14.88;;;13.27;;
34775;SDS011;20989;52.566;13.346;2022-12-01T18:26:56;16.83;;;12.80;;
34775;SDS011;20989;52.566;13.346;2022-12-01T18:29:56;14.40;;;12.32;;
34775;SDS011;20989;52.566;13.346;2022-12-01T18:32:57;14.07;;;11.93;;
34775;SDS011;20989;52.566;13.346;2022-12-01T18:35:58;14.20;;;12.70;;
34775;SDS011;20989;52.566;13.346;2022-12-01T18:38:59;17.90;;;13.23;;
34775;SDS011;20989;52.566;13.346;2022-12-01T18:42:01;16.00;;;13.15;;
34775;SDS011;20989;52.566;13.346;2022-12-01T18:45:02;16.48;;;12.63;;
34775;SDS011;20989;52.566;13.346;2022-12-01T18:48:03;13.98;;;11.98;;
34775;SDS011;20989;52.566;13.346;2022-12-01T18:51:05;14.10;;;12.43;;
34775;SDS011;20989;52.566;13.346;2022-12-01T18:54:07;12.85;;;11.55;;
34775;SDS011;20989;52.566;13.346;2022-12-01T18:57:10;13.43;;;11.68;;
34775;SDS011;20989;52.566;13.346;2022-12-01T19:00:13;14.95;;;12.15;;
34775;SDS011;20989;52.566;13.346;2022-12-01T19:03:14;21.17;;;11.90;;
34775;SDS011;20989;52.566;13.346;2022-12-01T19:06:15;15.63;;;11.50;;
34775;SDS011;20989;52.566;13.346;2022-12-01T19:09:16;18.90;;;12.30;;
34775;SDS011;20989;52.566;13.346;2022-12-01T19:12:17;14.95;;;12.68;;
34775;SDS011;20989;52.566;13.346;2022-12-01T19:15:17;20.00;;;12.93;;
34775;SDS011;20989;52.566;13.346;2022-12-01T19:18:18;24.13;;;11.70;;
34775;SDS011;20989;52.566;13.346;2022-12-01T19:21:19;25.27;;;12.05;;
34775;SDS011;20989;52.566;13.346;2022-12-01T19:24:20;14.23;;;11.18;;
34775;SDS011;20989;52.566;13.346;2022-12-01T19:27:20;29.20;;;11.85;;
34775;SDS011;20989;52.566;13.346;2022-12-01T19:30:21;24.00;;;12.05;;
34775;SDS011;20989;52.566;13.346;2022-12-01T19:33:22;22.40;;;12.57;;
34775;SDS011;20989;52.566;13.346;2022-12-01T19:36:25;24.52;;;11.45;;
34775;SDS011;20989;52.566;13.346;2022-12-01T19:39:27;19.77;;;11.07;;
34775;SDS011;20989;52.566;13.346;2022-12-01T19:42:27;27.13;;;11.35;;
34775;SDS011;20989;52.566;13.346;2022-12-01T19:45:29;17.75;;;11.65;;
34775;SDS011;20989;52.566;13.346;2022-12-01T19:48:30;17.27;;;10.90;;
34775;SDS011;20989;52.566;13.346;2022-12-01T19:51:32;22.40;;;10.40;;
34775;SDS011;20989;52.566;13.346;2022-12-01T19:54:34;20.15;;;10.90;;